Time;durP1;ratioP1;P1;durP2;ratioP2;P2;SDS_P1;SDS_P2;PMS_P1;PMS_P2;Temp;Humidity;BMP_temperature;BMP_pressure;BME280_temperature;BME280_humidity;BME280_pressure;Samples;Min_cycle;Max_cycle;Signal;HPM_P1;HPM_P2
2021/12/19 00:04:13;;;;;;;19.52;11.30;;;7.10;99.90;;;;;;5099164;28;20048;-76
2021/12/19 00:09:24;;;;;;;19.20;10.85;;;7.10;99.90;;;;;;5113693;28;20052;-75
2021/12/19 00:11:50;;;;;;;17.80;11.00;;;7.10;99.90;;;;;;5093731;28;20221;-76
2021/12/19 00:14:18;;;;;;;18.10;10.98;;;7.10;99.90;;;;;;5095686;28;20501;-76
2021/12/19 00:16:43;;;;;;;19.30;11.32;;;7.10;99.90;;;;;;5093583;28;20047;-76
2021/12/19 00:19:09;;;;;;;18.70;11.00;;;7.10;99.90;;;;;;5094357;28;20048;-76
2021/12/19 00:21:35;;;;;;;20.33;11.38;;;7.20;99.90;;;;;;5108814;28;20040;-75
2021/12/19 00:24:02;;;;;;;18.33;11.35;;;7.10;99.90;;;;;;5113271;28;20066;-76
2021/12/19 00:26:28;;;;;;;17.45;11.10;;;7.10;99.90;;;;;;5079431;28;20071;-76
2021/12/19 00:28:54;;;;;;;17.17;10.98;;;7.20;99.90;;;;;;5094931;28;20551;-76
2021/12/19 00:31:20;;;;;;;16.60;10.65;;;7.20;99.90;;;;;;5113499;28;20365;-76
2021/12/19 00:33:46;;;;;;;16.35;10.57;;;7.20;99.90;;;;;;5113214;28;20081;-76
2021/12/19 00:36:12;;;;;;;20.30;11.70;;;7.20;99.90;;;;;;5100135;28;20492;-76
2021/12/19 00:38:39;;;;;;;14.38;9.75;;;7.20;99.90;;;;;;5100770;28;20423;-76
2021/12/19 00:41:06;;;;;;;13.63;9.15;;;7.20;99.90;;;;;;5114170;28;20085;-76
2021/12/19 00:43:35;;;;;;;14.90;9.68;;;7.20;99.90;;;;;;5107774;28;20048;-76
2021/12/19 00:46:09;;;;;;;13.35;9.27;;;7.20;99.90;;;;;;5093985;28;20093;-76
2021/12/19 00:48:42;;;;;;;10.20;7.70;;;7.20;99.90;;;;;;5093421;28;20078;-73
2021/12/19 00:51:10;;;;;;;10.68;8.43;;;7.20;99.90;;;;;;5093520;28;20048;-76
2021/12/19 00:53:37;;;;;;;11.05;8.23;;;7.20;99.90;;;;;;5093532;28;20055;-73
2021/12/19 00:56:03;;;;;;;11.63;8.60;;;7.20;99.90;;;;;;5093227;28;20392;-75
2021/12/19 00:58:29;;;;;;;14.15;9.13;;;7.20;99.90;;;;;;5097351;28;20044;-76
2021/12/19 01:00:55;;;;;;;12.65;9.27;;;7.30;99.90;;;;;;5112943;28;20719;-76
2021/12/19 01:03:22;;;;;;;13.60;8.80;;;7.20;99.90;;;;;;5107446;28;20078;-76
2021/12/19 01:05:48;;;;;;;14.35;8.82;;;7.20;99.90;;;;;;5092316;28;20036;-75
2021/12/19 01:08:14;;;;;;;13.20;8.93;;;7.20;99.90;;;;;;5081652;28;20074;-76
2021/12/19 01:10:43;;;;;;;12.50;8.45;;;7.20;99.90;;;;;;5113216;28;20476;-75
2021/12/19 01:13:09;;;;;;;11.98;9.05;;;7.30;99.90;;;;;;5109876;28;20488;-76
2021/12/19 01:15:35;;;;;;;13.52;9.25;;;7.30;99.90;;;;;;5092953;28;20427;-76
2021/12/19 01:18:02;;;;;;;13.88;8.68;;;7.30;99.90;;;;;;5092783;28;20040;-75
2021/12/19 01:20:30;;;;;;;12.55;9.80;;;7.30;99.90;;;;;;5093015;28;20127;-76
2021/12/19 01:22:56;;;;;;;15.32;10.23;;;7.30;99.90;;;;;;5089403;28;20058;-75
2021/12/19 01:25:22;;;;;;;13.35;9.38;;;7.20;99.90;;;;;;5093107;28;20040;-76
2021/12/19 01:27:48;;;;;;;13.98;9.27;;;7.30;99.90;;;;;;5092490;28;20051;-76
2021/12/19 01:30:16;;;;;;;12.98;9.50;;;7.30;99.90;;;;;;5094891;28;20587;-76
2021/12/19 01:32:43;;;;;;;13.57;9.52;;;7.30;99.90;;;;;;5092459;28;20134;-75
2021/12/19 01:35:11;;;;;;;13.85;9.07;;;7.30;99.90;;;;;;5093025;28;20051;-76
2021/12/19 01:37:37;;;;;;;14.10;9.30;;;7.30;99.90;;;;;;5091235;28;20055;-76
2021/12/19 01:40:05;;;;;;;13.90;9.50;;;7.30;99.90;;;;;;5111502;28;20048;-75
2021/12/19 01:42:36;;;;;;;15.25;9.52;;;7.30;99.90;;;;;;5113385;28;20094;-76
2021/12/19 01:45:05;;;;;;;14.30;9.98;;;7.30;99.90;;;;;;5091634;28;20040;-76
2021/12/19 01:47:30;;;;;;;16.17;10.18;;;7.30;99.90;;;;;;5092893;28;20071;-76
2021/12/19 01:49:56;;;;;;;15.45;9.32;;;7.30;99.90;;;;;;5093200;28;20039;-76
2021/12/19 01:52:22;;;;;;;16.40;10.00;;;7.30;99.90;;;;;;5090608;28;20122;-76
2021/12/19 01:54:50;;;;;;;15.00;9.82;;;7.40;99.90;;;;;;5109792;28;20541;-75
2021/12/19 01:57:17;;;;;;;15.07;9.77;;;7.30;99.90;;;;;;5112989;28;20085;-76
2021/12/19 01:59:42;;;;;;;14.63;9.35;;;7.40;99.90;;;;;;5096377;28;20044;-73
2021/12/19 02:02:08;;;;;;;16.75;10.25;;;7.30;99.90;;;;;;5092383;28;20040;-76
2021/12/19 02:04:34;;;;;;;15.88;10.20;;;7.30;99.90;;;;;;5106295;28;20123;-76
2021/12/19 02:07:01;;;;;;;12.18;8.35;;;7.40;99.90;;;;;;5116146;28;20044;-76
2021/12/19 02:09:27;;;;;;;7.65;5.70;;;7.40;99.90;;;;;;5107365;28;20054;-76
2021/12/19 02:11:53;;;;;;;5.85;4.90;;;7.30;99.90;;;;;;5116551;28;20043;-75
2021/12/19 02:14:20;;;;;;;5.70;3.65;;;7.30;99.90;;;;;;5102308;28;20119;-76
2021/12/19 02:16:46;;;;;;;5.93;4.60;;;7.30;99.90;;;;;;5096229;28;20094;-73
2021/12/19 02:19:12;;;;;;;5.40;4.18;;;7.30;99.90;;;;;;5110439;28;20123;-76
2021/12/19 02:21:39;;;;;;;5.43;4.35;;;7.30;99.90;;;;;;5116961;28;20044;-76
2021/12/19 02:24:08;;;;;;;7.00;5.20;;;7.30;99.90;;;;;;5101866;28;20051;-75
2021/12/19 02:26:36;;;;;;;9.57;5.97;;;7.30;99.90;;;;;;5097532;28;20038;-76
2021/12/19 02:29:02;;;;;;;9.60;6.78;;;7.40;99.90;;;;;;5095867;28;20055;-76
2021/12/19 02:31:28;;;;;;;10.50;6.90;;;7.30;99.90;;;;;;5098038;28;20105;-76
2021/12/19 02:34:41;;;;;;;10.45;7.03;;;7.40;99.90;;;;;;5108074;27;20123;-75
2021/12/19 02:36:55;;;;;;;8.23;5.60;;;7.40;99.90;;;;;;5093414;28;20055;-76
2021/12/19 02:50:21;;;;;;;4.38;2.70;;;7.30;99.90;;;;;;5111579;28;20529;-76
2021/12/19 02:52:47;;;;;;;4.25;2.72;;;7.30;99.90;;;;;;5115785;28;20048;-76
2021/12/19 02:55:18;;;;;;;4.00;2.60;;;7.30;99.90;;;;;;5099540;28;20048;-76
2021/12/19 02:57:48;;;;;;;3.03;2.50;;;7.40;99.90;;;;;;5105285;28;20100;-76
2021/12/19 03:00:18;;;;;;;3.22;2.40;;;7.30;99.90;;;;;;5116007;28;20126;-76
2021/12/19 03:02:44;;;;;;;4.10;2.40;;;7.30;99.90;;;;;;5106727;28;20040;-76
2021/12/19 03:05:10;;;;;;;3.30;2.20;;;7.30;99.90;;;;;;5106002;28;20050;-76
2021/12/19 03:07:40;;;;;;;2.40;1.85;;;7.30;99.90;;;;;;5108400;28;20054;-76
2021/12/19 03:17:57;;;;;;;2.63;1.65;;;7.20;99.90;;;;;;5105351;28;20095;-73
2021/12/19 03:20:23;;;;;;;1.90;1.50;;;7.20;99.90;;;;;;5095528;28;20044;-76
2021/12/19 03:22:49;;;;;;;3.80;1.73;;;7.20;99.90;;;;;;5102875;28;20040;-76
2021/12/19 03:25:16;;;;;;;2.42;1.95;;;7.20;99.90;;;;;;5109052;28;20388;-76
2021/12/19 03:27:41;;;;;;;4.25;2.17;;;7.20;99.90;;;;;;5076046;28;20123;-76
2021/12/19 03:30:08;;;;;;;2.90;1.90;;;7.20;99.90;;;;;;5082638;28;20127;-75
2021/12/19 03:32:34;;;;;;;3.28;1.77;;;7.20;99.90;;;;;;5115663;28;20488;-76
2021/12/19 03:34:59;;;;;;;2.15;1.58;;;7.20;99.90;;;;;;5112146;28;20124;-76
2021/12/19 03:37:25;;;;;;;1.75;1.10;;;7.20;99.90;;;;;;5095246;28;20048;-77
2021/12/19 03:40:08;;;;;;;2.03;1.20;;;7.20;99.90;;;;;;5095530;28;20408;-75
2021/12/19 03:42:38;;;;;;;1.80;1.48;;;7.20;99.90;;;;;;5099901;28;20051;-76
2021/12/19 03:45:05;;;;;;;2.33;1.50;;;7.10;99.90;;;;;;5096099;28;20044;-75
2021/12/19 03:47:31;;;;;;;2.85;1.60;;;7.10;99.90;;;;;;5115624;27;20043;-76
2021/12/19 03:49:56;;;;;;;2.38;1.70;;;7.10;99.90;;;;;;5113294;28;20484;-73
2021/12/19 03:52:22;;;;;;;2.95;1.60;;;7.10;99.90;;;;;;5074577;28;20048;-76
2021/12/19 03:54:48;;;;;;;1.70;1.25;;;7.10;99.90;;;;;;5076854;28;20063;-75
2021/12/19 03:57:14;;;;;;;1.70;1.35;;;7.10;99.90;;;;;;5092101;28;20039;-76
2021/12/19 03:59:41;;;;;;;2.33;1.50;;;7.10;99.90;;;;;;5095263;28;20169;-76
2021/12/19 04:02:07;;;;;;;1.70;1.50;;;7.00;99.90;;;;;;5114488;27;20051;-75
2021/12/19 04:04:37;;;;;;;2.42;1.50;;;7.00;99.90;;;;;;5115021;28;20044;-76
2021/12/19 04:07:04;;;;;;;3.07;1.77;;;7.00;99.90;;;;;;5094070;28;20044;-76
2021/12/19 04:09:29;;;;;;;1.67;1.20;;;7.00;99.90;;;;;;5094541;28;20123;-76
2021/12/19 04:11:56;;;;;;;1.80;1.40;;;7.00;99.90;;;;;;5113017;28;20193;-76
2021/12/19 04:14:22;;;;;;;2.35;1.50;;;7.00;99.90;;;;;;5093119;28;20048;-77
2021/12/19 04:16:48;;;;;;;1.77;1.42;;;7.00;99.90;;;;;;5111160;28;20050;-77
2021/12/19 04:19:13;;;;;;;1.65;1.17;;;7.00;99.90;;;;;;5114394;28;20119;-76
2021/12/19 04:21:39;;;;;;;1.58;1.17;;;6.90;99.90;;;;;;5098139;28;20039;-76
2021/12/19 04:24:05;;;;;;;2.50;1.40;;;7.00;99.90;;;;;;5093753;28;20451;-75
2021/12/19 04:26:31;;;;;;;1.40;1.25;;;7.00;99.90;;;;;;5107507;28;20040;-76
2021/12/19 04:28:56;;;;;;;2.13;1.40;;;7.00;99.90;;;;;;5100959;28;20044;-77
2021/12/19 04:31:22;;;;;;;2.08;1.35;;;6.90;99.90;;;;;;5094272;28;20075;-76
2021/12/19 04:33:48;;;;;;;1.75;1.40;;;6.90;99.90;;;;;;5094058;28;20040;-76
2021/12/19 04:36:22;;;;;;;2.17;1.60;;;6.90;99.90;;;;;;5094331;28;20529;-76
2021/12/19 04:41:53;;;;;;;2.53;1.50;;;6.90;99.90;;;;;;5093705;28;20060;-76
2021/12/19 04:51:04;;;;;;;2.83;1.67;;;6.90;99.90;;;;;;5114220;28;20043;-76
2021/12/19 05:00:16;;;;;;;2.03;1.55;;;6.90;99.90;;;;;;5103912;28;20401;-75
2021/12/19 05:02:50;;;;;;;;;;;6.90;99.90;;;;;;5114338;28;20051;-76
2021/12/19 05:15:58;;;;;;;3.25;1.92;;;6.80;99.90;;;;;;5092691;28;20047;-76
2021/12/19 05:18:27;;;;;;;2.95;2.00;;;6.70;99.90;;;;;;5092855;28;20044;-76
2021/12/19 05:21:00;;;;;;;3.25;2.10;;;6.80;99.90;;;;;;5093121;28;20043;-76
2021/12/19 05:23:38;;;;;;;3.83;2.40;;;6.80;99.90;;;;;;5098565;28;20129;-76
2021/12/19 05:26:03;;;;;;;3.53;2.55;;;6.80;99.90;;;;;;5101087;28;20405;-76
2021/12/19 05:28:29;;;;;;;3.55;2.38;;;6.80;99.90;;;;;;5092337;28;20056;-76
2021/12/19 05:30:55;;;;;;;4.22;2.25;;;6.80;99.90;;;;;;5092295;28;20048;-76
2021/12/19 05:33:20;;;;;;;2.42;1.60;;;6.80;99.90;;;;;;5081082;28;20045;-77
2021/12/19 05:46:45;;;;;;;4.88;2.15;;;6.70;99.90;;;;;;5103527;28;20059;-76
2021/12/19 05:49:11;;;;;;;4.18;1.90;;;6.70;99.90;;;;;;5112526;28;20127;-76
2021/12/19 05:51:38;;;;;;;2.95;1.67;;;6.70;99.90;;;;;;5102728;28;20047;-76
2021/12/19 05:54:06;;;;;;;5.07;1.92;;;6.70;99.90;;;;;;5090652;28;20078;-76
2021/12/19 05:56:32;;;;;;;4.32;1.95;;;6.70;99.90;;;;;;5100619;28;20055;-76
2021/12/19 05:58:58;;;;;;;3.83;2.20;;;6.70;99.90;;;;;;5113135;28;20054;-76
2021/12/19 06:01:24;;;;;;;4.55;2.10;;;6.70;99.90;;;;;;5105000;28;20040;-76
2021/12/19 06:03:49;;;;;;;5.35;2.00;;;6.70;99.90;;;;;;5090558;28;20142;-76
2021/12/19 06:06:15;;;;;;;3.83;2.00;;;6.80;99.90;;;;;;5097270;28;20071;-76
2021/12/19 06:08:41;;;;;;;5.32;2.40;;;6.70;99.90;;;;;;5111380;28;20035;-76
2021/12/19 06:11:07;;;;;;;4.55;2.35;;;6.70;99.90;;;;;;5093351;28;20397;-76
2021/12/19 06:13:33;;;;;;;4.80;2.38;;;6.70;99.90;;;;;;5090763;28;20036;-76
2021/12/19 06:15:59;;;;;;;5.47;2.22;;;6.70;99.90;;;;;;5112549;28;20135;-75
2021/12/19 06:18:25;;;;;;;5.15;2.38;;;6.70;99.90;;;;;;5091944;28;20036;-77
2021/12/19 06:20:50;;;;;;;4.60;2.15;;;6.70;99.90;;;;;;5100495;28;20086;-77
2021/12/19 06:23:16;;;;;;;5.90;2.50;;;6.70;99.90;;;;;;5096619;28;20444;-76
2021/12/19 06:25:45;;;;;;;4.88;2.50;;;6.70;99.90;;;;;;5097351;28;20035;-77
2021/12/19 06:28:16;;;;;;;5.28;2.55;;;6.70;99.90;;;;;;5096839;28;20052;-77
2021/12/19 06:30:42;;;;;;;4.70;2.90;;;6.70;99.90;;;;;;5090583;28;20031;-77
2021/12/19 06:33:09;;;;;;;5.47;3.08;;;6.70;99.90;;;;;;5092461;28;20043;-77
2021/12/19 06:35:34;;;;;;;7.20;3.17;;;6.70;99.90;;;;;;5092965;28;20036;-75
2021/12/19 06:38:00;;;;;;;5.55;3.08;;;6.70;99.90;;;;;;5091511;28;20046;-77
2021/12/19 06:40:27;;;;;;;6.65;3.20;;;6.70;99.90;;;;;;5093331;28;20071;-77
2021/12/19 06:42:53;;;;;;;5.20;2.92;;;6.70;99.90;;;;;;5090859;28;20127;-77
2021/12/19 06:45:20;;;;;;;6.82;3.00;;;6.70;99.90;;;;;;5092606;28;20536;-76
2021/12/19 06:47:46;;;;;;;4.95;2.80;;;6.70;99.90;;;;;;5112300;28;20492;-77
2021/12/19 06:50:15;;;;;;;6.03;3.00;;;6.70;99.90;;;;;;5112243;28;20047;-76
2021/12/19 06:52:42;;;;;;;8.35;3.55;;;6.70;99.90;;;;;;5092784;28;20052;-77
2021/12/19 06:55:10;;;;;;;7.18;4.13;;;6.80;99.90;;;;;;5095999;28;20101;-77
2021/12/19 06:57:37;;;;;;;7.57;4.30;;;6.70;99.90;;;;;;5103463;28;20052;-77
2021/12/19 07:00:09;;;;;;;7.70;4.95;;;6.80;99.90;;;;;;5095917;28;20401;-77
2021/12/19 07:02:35;;;;;;;8.30;4.45;;;6.80;99.90;;;;;;5102622;28;20052;-77
2021/12/19 07:05:01;;;;;;;10.05;5.82;;;6.70;99.90;;;;;;5097770;28;20066;-77
2021/12/19 07:07:27;;;;;;;10.60;5.63;;;6.80;99.90;;;;;;5115001;28;20377;-77
2021/12/19 07:09:53;;;;;;;9.73;6.30;;;6.80;99.90;;;;;;5115626;28;20109;-77
2021/12/19 07:12:19;;;;;;;11.50;6.35;;;6.80;99.90;;;;;;5111192;28;20084;-73
2021/12/19 07:14:46;;;;;;;12.82;7.15;;;6.80;99.90;;;;;;5094954;28;20489;-77
2021/12/19 07:17:12;;;;;;;12.32;6.85;;;6.80;99.90;;;;;;5114754;28;20438;-77
2021/12/19 07:19:38;;;;;;;17.15;7.93;;;6.90;99.90;;;;;;5115255;28;20040;-77
2021/12/19 07:22:04;;;;;;;12.52;6.95;;;6.90;99.90;;;;;;5100622;28;20081;-77
2021/12/19 07:24:30;;;;;;;11.10;7.20;;;6.90;99.90;;;;;;5096720;28;20043;-77
2021/12/19 07:26:56;;;;;;;13.25;7.63;;;6.90;99.90;;;;;;5095623;28;20036;-77
2021/12/19 07:29:22;;;;;;;14.05;8.98;;;6.90;99.90;;;;;;5094814;28;20555;-74
2021/12/19 07:31:47;;;;;;;16.25;9.00;;;6.90;99.90;;;;;;5113282;28;20044;-77
2021/12/19 07:34:13;;;;;;;15.32;9.27;;;6.90;99.90;;;;;;5104447;28;20066;-77
2021/12/19 07:36:49;;;;;;;15.38;9.77;;;6.90;99.90;;;;;;5110774;28;20845;-77
2021/12/19 07:39:40;;;;;;;20.30;10.38;;;6.90;99.90;;;;;;5115592;28;20047;-77
2021/12/19 07:42:09;;;;;;;15.38;9.93;;;6.90;99.90;;;;;;5095503;28;20051;-77
2021/12/19 07:44:35;;;;;;;16.30;9.80;;;6.90;99.90;;;;;;5092250;28;20040;-77
2021/12/19 07:47:02;;;;;;;16.70;10.15;;;6.90;99.90;;;;;;5113440;28;20088;-77
2021/12/19 07:49:27;;;;;;;17.67;9.95;;;6.90;99.90;;;;;;5114764;28;20044;-76
2021/12/19 07:51:53;;;;;;;19.48;10.50;;;6.90;99.90;;;;;;5097902;28;20044;-77
2021/12/19 07:54:19;;;;;;;17.83;9.85;;;7.00;99.90;;;;;;5093455;28;20094;-76
2021/12/19 07:56:46;;;;;;;17.65;9.82;;;6.90;99.90;;;;;;5104712;28;20484;-77
2021/12/19 07:59:12;;;;;;;16.73;9.73;;;6.90;99.90;;;;;;5115093;28;20051;-77
2021/12/19 08:01:38;;;;;;;18.75;10.02;;;7.00;99.90;;;;;;5103764;28;20040;-75
2021/12/19 08:04:04;;;;;;;17.60;9.95;;;7.00;99.90;;;;;;5093832;28;20047;-79
2021/12/19 08:06:30;;;;;;;16.10;9.27;;;7.00;99.90;;;;;;5092237;28;20062;-79
2021/12/19 08:08:58;;;;;;;19.92;8.80;;;7.00;99.90;;;;;;5094547;28;20464;-79
2021/12/19 08:11:40;;;;;;;15.93;8.40;;;7.00;99.90;;;;;;5104675;28;20105;-76
2021/12/19 08:14:09;;;;;;;21.15;8.57;;;7.00;99.90;;;;;;5094386;28;20432;-79
2021/12/19 08:16:35;;;;;;;15.35;7.95;;;7.00;99.90;;;;;;5095090;28;20391;-78
2021/12/19 08:19:02;;;;;;;14.35;8.35;;;7.00;99.90;;;;;;5109787;28;20043;-78
2021/12/19 08:21:27;;;;;;;17.30;9.00;;;7.00;99.90;;;;;;5091690;28;20044;-75
2021/12/19 08:23:57;;;;;;;17.10;8.35;;;7.00;99.90;;;;;;5097886;28;20377;-78
2021/12/19 08:26:24;;;;;;;12.07;8.02;;;7.00;99.90;;;;;;5094258;28;20079;-78
2021/12/19 08:28:49;;;;;;;16.40;8.50;;;7.00;99.90;;;;;;5104835;28;20520;-79
2021/12/19 08:31:15;;;;;;;13.95;8.27;;;7.00;99.90;;;;;;5106948;28;20139;-78
2021/12/19 08:33:41;;;;;;;16.23;8.23;;;7.00;99.90;;;;;;5081122;28;20484;-78
2021/12/19 08:36:07;;;;;;;14.10;8.32;;;7.00;99.90;;;;;;5092768;28;20093;-78
2021/12/19 08:38:33;;;;;;;15.20;8.70;;;7.00;99.90;;;;;;5101333;28;20044;-78
2021/12/19 08:41:00;;;;;;;17.98;8.77;;;7.00;99.90;;;;;;5100904;28;20180;-78
2021/12/19 08:43:25;;;;;;;17.05;8.23;;;7.00;99.90;;;;;;5100131;28;20119;-78
2021/12/19 08:45:51;;;;;;;20.30;8.98;;;7.00;99.90;;;;;;5104152;28;20086;-78
2021/12/19 08:48:18;;;;;;;15.25;8.27;;;7.00;99.90;;;;;;5096563;28;20484;-78
2021/12/19 08:50:44;;;;;;;17.77;9.07;;;7.10;99.90;;;;;;5111671;28;20121;-78
2021/12/19 08:53:10;;;;;;;13.70;7.57;;;7.00;99.90;;;;;;5103834;27;20108;-77
2021/12/19 08:55:36;;;;;;;13.20;7.30;;;7.10;99.90;;;;;;5086912;28;20497;-77
2021/12/19 08:58:03;;;;;;;15.25;7.47;;;7.10;99.90;;;;;;5091278;28;20048;-78
2021/12/19 09:00:30;;;;;;;14.18;7.28;;;7.10;99.90;;;;;;5094290;28;20046;-75
2021/12/19 09:02:57;;;;;;;14.82;7.57;;;7.10;99.90;;;;;;5110361;28;20575;-79
2021/12/19 09:05:27;;;;;;;15.73;7.30;;;7.10;99.90;;;;;;5110728;28;20400;-79
2021/12/19 09:07:52;;;;;;;13.60;7.55;;;7.10;99.90;;;;;;5077755;28;20043;-77
2021/12/19 09:10:20;;;;;;;14.30;7.78;;;7.20;99.90;;;;;;5069851;28;20044;-78
2021/12/19 09:12:46;;;;;;;14.70;8.27;;;7.20;99.90;;;;;;5104313;28;20051;-77
2021/12/19 09:15:12;;;;;;;17.00;7.97;;;7.20;99.90;;;;;;5089516;28;20460;-78
2021/12/19 09:17:38;;;;;;;13.90;8.05;;;7.20;99.90;;;;;;5083316;28;20186;-78
2021/12/19 09:20:06;;;;;;;15.85;8.57;;;7.20;99.90;;;;;;5070053;28;20080;-78
2021/12/19 09:22:32;;;;;;;15.80;8.18;;;7.20;99.90;;;;;;5101226;28;20047;-75
2021/12/19 09:24:58;;;;;;;15.10;8.85;;;7.30;99.90;;;;;;5109269;28;20043;-77
2021/12/19 09:27:23;;;;;;;13.40;7.15;;;7.30;99.90;;;;;;5088069;28;20044;-77
2021/12/19 09:29:49;;;;;;;13.10;7.07;;;7.30;99.90;;;;;;5089794;28;20374;-77
2021/12/19 09:32:15;;;;;;;16.23;7.47;;;7.30;99.90;;;;;;5104050;28;20098;-78
2021/12/19 09:34:41;;;;;;;15.90;6.82;;;7.30;99.90;;;;;;5101024;28;20044;-79
2021/12/19 09:37:06;;;;;;;14.63;6.20;;;7.40;99.90;;;;;;5092055;28;20044;-78
2021/12/19 09:39:33;;;;;;;13.95;6.28;;;7.30;99.90;;;;;;5091862;28;20097;-75
2021/12/19 09:42:07;;;;;;;11.30;5.63;;;7.30;99.90;;;;;;5094403;28;20059;-78
2021/12/19 09:44:34;;;;;;;9.93;5.07;;;7.40;99.90;;;;;;5091966;28;20052;-75
2021/12/19 09:46:59;;;;;;;10.95;5.25;;;7.40;99.90;;;;;;5098526;28;20067;-79
2021/12/19 09:49:25;;;;;;;11.18;5.03;;;7.40;99.90;;;;;;5091361;28;20080;-78
2021/12/19 09:51:52;;;;;;;11.98;5.28;;;7.30;99.90;;;;;;5092556;28;20040;-78
2021/12/19 09:54:19;;;;;;;10.80;5.47;;;7.40;99.90;;;;;;5112892;28;20062;-79
2021/12/19 09:56:45;;;;;;;13.48;5.65;;;7.50;99.90;;;;;;5104669;28;20067;-79
2021/12/19 09:59:14;;;;;;;10.48;4.50;;;7.40;99.90;;;;;;5093018;28;20424;-78
2021/12/19 10:01:40;;;;;;;11.52;5.55;;;7.50;99.90;;;;;;5092065;28;20097;-78
2021/12/19 10:04:37;;;;;;;9.68;5.13;;;7.50;99.90;;;;;;5099682;28;20040;-77
2021/12/19 10:07:09;;;;;;;12.10;5.53;;;7.50;99.90;;;;;;5112689;28;20119;-78
2021/12/19 10:09:38;;;;;;;10.40;4.90;;;7.50;99.90;;;;;;5101012;28;20044;-74
2021/12/19 10:12:35;;;;;;;11.47;4.60;;;7.50;99.90;;;;;;5092765;28;20500;-78
2021/12/19 10:15:28;;;;;;;9.88;4.72;;;7.50;99.90;;;;;;5102265;28;20846;-79
2021/12/19 10:18:07;;;;;;;9.30;3.67;;;7.50;99.90;;;;;;5111876;28;20134;-78
2021/12/19 10:20:42;;;;;;;10.25;3.90;;;7.50;99.90;;;;;;5084138;28;20040;-79
2021/12/19 10:23:10;;;;;;;11.90;4.28;;;7.50;99.90;;;;;;5072261;28;20048;-78
2021/12/19 10:25:36;;;;;;;9.02;4.20;;;7.50;99.90;;;;;;5108549;28;20050;-74
2021/12/19 10:28:05;;;;;;;6.68;3.70;;;7.50;99.90;;;;;;5101910;28;20044;-77
2021/12/19 10:30:43;;;;;;;6.90;4.00;;;7.50;99.90;;;;;;5106492;28;20032;-77
2021/12/19 10:33:15;;;;;;;12.18;4.57;;;7.60;99.90;;;;;;5096370;28;20093;-77
2021/12/19 10:35:50;;;;;;;8.65;3.95;;;7.60;99.90;;;;;;5101654;28;20040;-75
2021/12/19 10:38:24;;;;;;;8.13;4.20;;;7.60;99.90;;;;;;5076377;28;20044;-78
2021/12/19 10:41:08;;;;;;;7.65;3.78;;;7.60;99.90;;;;;;5080694;28;20059;-78
2021/12/19 10:43:41;;;;;;;7.95;4.07;;;7.70;99.90;;;;;;5115699;28;20088;-79
2021/12/19 10:46:07;;;;;;;9.63;4.07;;;7.60;99.90;;;;;;5096247;28;20091;-77
2021/12/19 10:48:38;;;;;;;8.75;4.50;;;7.70;99.90;;;;;;5095001;28;20079;-78
2021/12/19 10:51:07;;;;;;;7.05;3.95;;;7.70;99.90;;;;;;5090781;28;20115;-77
2021/12/19 10:53:37;;;;;;;8.75;4.53;;;7.70;99.90;;;;;;5104767;28;20044;-76
2021/12/19 10:56:11;;;;;;;11.20;4.65;;;7.70;99.90;;;;;;5115777;28;20048;-76
2021/12/19 10:58:54;;;;;;;7.75;4.25;;;7.70;99.90;;;;;;5116348;28;20489;-76
2021/12/19 11:01:28;;;;;;;8.02;3.90;;;7.70;99.90;;;;;;5116655;28;20051;-76
2021/12/19 11:04:22;;;;;;;8.20;3.65;;;7.70;99.90;;;;;;5116119;28;20366;-75
2021/12/19 11:06:47;;;;;;;10.35;3.83;;;7.80;99.90;;;;;;5102201;27;20067;-76
2021/12/19 11:09:28;;;;;;;7.63;4.00;;;7.80;99.90;;;;;;5075991;28;20478;-76
2021/12/19 11:12:02;;;;;;;8.25;3.90;;;7.80;99.90;;;;;;5075230;28;20051;-76
2021/12/19 11:14:27;;;;;;;6.00;3.65;;;7.80;99.90;;;;;;5075691;28;20045;-77
2021/12/19 11:17:03;;;;;;;7.40;3.20;;;7.80;99.90;;;;;;5075056;28;20041;-76
2021/12/19 11:19:29;;;;;;;8.10;3.70;;;7.80;99.90;;;;;;5074818;28;20045;-76
2021/12/19 11:21:55;;;;;;;8.07;3.50;;;7.90;99.90;;;;;;5075218;28;20048;-76
2021/12/19 11:24:23;;;;;;;9.55;3.58;;;7.80;99.90;;;;;;5075225;28;20343;-76
2021/12/19 11:26:53;;;;;;;7.20;3.83;;;7.80;99.90;;;;;;5074989;28;20037;-76
2021/12/19 11:29:19;;;;;;;9.77;3.67;;;7.80;99.90;;;;;;5075113;28;20047;-76
2021/12/19 11:31:50;;;;;;;8.90;3.50;;;7.80;99.90;;;;;;5074316;28;20392;-75
2021/12/19 11:34:23;;;;;;;6.60;3.63;;;7.80;99.90;;;;;;5075498;28;20052;-76
2021/12/19 11:36:57;;;;;;;7.82;3.53;;;7.80;99.90;;;;;;5074850;28;20135;-75
2021/12/19 11:39:34;;;;;;;9.23;4.25;;;7.80;99.90;;;;;;5088092;28;20040;-76
2021/12/19 11:42:14;;;;;;;11.27;4.43;;;7.80;99.90;;;;;;5094577;28;20102;-76
2021/12/19 11:47:54;;;;;;;8.30;4.30;;;7.80;99.90;;;;;;5095512;28;20052;-76
2021/12/19 11:50:29;;;;;;;10.85;3.92;;;7.80;99.90;;;;;;5093648;28;20056;-76
2021/12/19 11:53:04;;;;;;;6.40;3.90;;;7.80;99.90;;;;;;5094860;28;20130;-76
2021/12/19 11:56:14;;;;;;;8.93;4.03;;;7.80;99.90;;;;;;5095198;28;20051;-76
2021/12/19 11:58:49;;;;;;;14.05;4.07;;;7.80;99.90;;;;;;5082898;28;20059;-76
2021/12/19 12:01:20;;;;;;;8.82;4.13;;;7.80;99.90;;;;;;5094735;28;20405;-76
2021/12/19 12:04:14;;;;;;;6.28;3.55;;;7.80;99.90;;;;;;5093562;28;20048;-79
2021/12/19 12:06:53;;;;;;;8.68;3.72;;;7.80;99.90;;;;;;5102563;28;20517;-78
2021/12/19 12:09:26;;;;;;;9.95;4.10;;;7.80;99.90;;;;;;5096485;28;20036;-80
2021/12/19 12:12:03;;;;;;;8.88;3.80;;;7.80;99.90;;;;;;5093780;28;20048;-79
2021/12/19 12:14:34;;;;;;;9.05;3.88;;;7.70;99.90;;;;;;5095532;28;20079;-79
2021/12/19 12:17:05;;;;;;;7.15;3.70;;;7.70;99.90;;;;;;5101733;28;20476;-80
2021/12/19 12:19:38;;;;;;;8.10;4.15;;;7.70;99.90;;;;;;5114488;28;20051;-80
2021/12/19 12:22:35;;;;;;;10.10;3.72;;;7.80;99.90;;;;;;5105019;28;20115;-80
2021/12/19 12:25:07;;;;;;;8.55;3.75;;;7.80;99.90;;;;;;5106214;28;20056;-79
2021/12/19 12:27:41;;;;;;;8.95;3.95;;;7.80;99.90;;;;;;5102074;28;20508;-80
2021/12/19 12:30:29;;;;;;;9.75;3.83;;;7.80;99.90;;;;;;5092496;28;20078;-80
2021/12/19 12:32:57;;;;;;;11.05;4.53;;;7.80;99.90;;;;;;5102145;28;20075;-78
2021/12/19 12:35:25;;;;;;;9.63;4.13;;;7.80;99.90;;;;;;5100341;28;20109;-79
2021/12/19 12:37:54;;;;;;;8.48;3.90;;;7.80;99.90;;;;;;5093939;28;20079;-79
2021/12/19 12:40:43;;;;;;;12.23;4.57;;;7.70;99.90;;;;;;5106015;28;20101;-79
2021/12/19 12:43:15;;;;;;;7.88;3.80;;;7.80;99.90;;;;;;5113700;28;20126;-80
2021/12/19 12:46:10;;;;;;;10.85;4.00;;;7.80;99.90;;;;;;5098278;28;20032;-80
2021/12/19 12:48:40;;;;;;;8.57;3.75;;;7.80;99.90;;;;;;5093179;28;20059;-79
2021/12/19 12:51:36;;;;;;;8.57;3.45;;;7.80;99.90;;;;;;5107175;28;20047;-80
2021/12/19 12:54:07;;;;;;;12.38;4.30;;;7.80;99.90;;;;;;5084376;28;20058;-79
2021/12/19 12:56:38;;;;;;;9.50;3.70;;;7.80;99.90;;;;;;5106036;28;20086;-81
2021/12/19 12:59:05;;;;;;;10.25;3.78;;;7.80;99.90;;;;;;5092631;28;20101;-78
2021/12/19 13:01:39;;;;;;;9.20;3.28;;;7.80;99.90;;;;;;5088914;28;20044;-80
2021/12/19 13:04:07;;;;;;;10.35;3.58;;;7.80;99.90;;;;;;5095035;28;20051;-80
2021/12/19 13:06:42;;;;;;;9.23;3.50;;;7.80;99.90;;;;;;5092159;28;20075;-78
2021/12/19 13:09:13;;;;;;;9.07;3.30;;;7.80;99.90;;;;;;5101873;28;20123;-80
2021/12/19 13:11:39;;;;;;;10.00;3.40;;;7.80;99.90;;;;;;5092701;28;20036;-80
2021/12/19 13:14:18;;;;;;;14.00;3.80;;;7.80;99.90;;;;;;5092303;28;20451;-79
2021/12/19 13:16:55;;;;;;;10.88;3.03;;;7.80;99.90;;;;;;5092250;28;20032;-80
2021/12/19 13:19:37;;;;;;;9.20;3.28;;;7.80;99.90;;;;;;5093015;28;20492;-78
2021/12/19 13:22:05;;;;;;;12.70;3.25;;;7.80;99.90;;;;;;5091884;28;20054;-79
2021/12/19 13:24:34;;;;;;;12.30;3.35;;;7.80;99.90;;;;;;5090693;28;20044;-80
2021/12/19 13:27:07;;;;;;;11.75;3.70;;;7.80;99.90;;;;;;5091954;28;20050;-79
2021/12/19 13:29:33;;;;;;;12.07;3.10;;;7.80;99.90;;;;;;5090209;28;20071;-80
2021/12/19 13:32:24;;;;;;;13.35;3.78;;;7.80;99.90;;;;;;5091652;28;20051;-75
2021/12/19 13:34:51;;;;;;;13.30;3.30;;;7.80;99.90;;;;;;5092589;28;20047;-80
2021/12/19 13:37:17;;;;;;;12.60;3.20;;;7.80;99.90;;;;;;5092000;28;20051;-80
2021/12/19 13:39:48;;;;;;;11.75;3.30;;;7.80;99.90;;;;;;5093032;28;20077;-79
2021/12/19 13:42:14;;;;;;;10.32;3.50;;;7.80;99.90;;;;;;5090235;28;20048;-80
2021/12/19 13:44:41;;;;;;;11.68;3.10;;;7.80;99.90;;;;;;5091669;28;20050;-80
2021/12/19 13:47:33;;;;;;;12.43;3.33;;;7.90;99.90;;;;;;5091467;28;20043;-79
2021/12/19 13:49:59;;;;;;;12.57;3.22;;;7.90;99.90;;;;;;5087064;28;20043;-77
2021/12/19 13:52:25;;;;;;;10.80;3.05;;;7.80;99.90;;;;;;5091488;28;20050;-79
2021/12/19 13:55:03;;;;;;;9.75;3.30;;;7.80;99.90;;;;;;5093262;28;20389;-78
2021/12/19 13:57:29;;;;;;;14.18;3.55;;;7.80;99.90;;;;;;5092043;28;20463;-77
2021/12/19 13:59:55;;;;;;;9.13;3.38;;;7.80;99.90;;;;;;5094967;28;20074;-77
2021/12/19 14:02:20;;;;;;;10.38;3.15;;;7.90;99.90;;;;;;5091942;28;20071;-78
2021/12/19 14:04:46;;;;;;;9.85;3.90;;;7.80;99.90;;;;;;5095566;28;20043;-78
2021/12/19 14:07:14;;;;;;;10.60;3.33;;;7.80;99.90;;;;;;5093364;28;20033;-80